createdAt,value
2023-04-11T00:00:14.082Z,100741.09
2023-04-11T00:02:41.416Z,100740.19
2023-04-11T00:05:09.898Z,100735.81
2023-04-11T00:07:37.456Z,100733.22
2023-04-11T00:10:07.082Z,100740.22
2023-04-11T00:12:34.198Z,100741.06
2023-04-11T00:15:01.295Z,100740.22
2023-04-11T00:17:31.553Z,100748.09
2023-04-11T00:20:08.096Z,100752.50
2023-04-11T00:22:35.889Z,100741.09
2023-04-11T00:25:03.036Z,100738.44
2023-04-11T00:27:30.216Z,100741.09
2023-04-11T00:29:58.153Z,100741.06
2023-04-11T00:32:25.662Z,100740.22
2023-04-11T00:34:52.732Z,100740.19
2023-04-11T00:37:21.627Z,100749.84
2023-04-11T00:39:50.579Z,100747.22
2023-04-11T00:42:17.829Z,100749.84
2023-04-11T00:44:45.311Z,100741.06
2023-04-11T00:47:13.120Z,100745.44
2023-04-11T00:49:41.723Z,100757.72
2023-04-11T00:52:09.417Z,100754.19
2023-04-11T00:54:36.895Z,100750.72
2023-04-11T00:57:07.439Z,100747.19
2023-04-11T00:59:35.320Z,100755.06
2023-04-11T01:02:02.738Z,100748.09
2023-04-11T01:04:29.956Z,100759.47
2023-04-11T01:07:04.145Z,100755.09
2023-04-11T01:09:35.168Z,100749.84
2023-04-11T01:12:03.989Z,100744.59
2023-04-11T01:14:31.182Z,100746.34
2023-04-11T01:17:01.932Z,100746.34
2023-04-11T01:19:30.676Z,100748.09
2023-04-11T01:21:59.142Z,100744.56
2023-04-11T01:24:26.723Z,100741.06
2023-04-11T01:26:54.620Z,100737.56
2023-04-11T01:29:21.693Z,100739.28
2023-04-11T01:31:50.482Z,100741.88
2023-04-11T01:34:18.861Z,100753.22
2023-04-11T01:36:46.324Z,100758.47
2023-04-11T01:39:13.710Z,100760.19
2023-04-11T01:41:41.423Z,100758.44
2023-04-11T01:44:08.624Z,100758.41
2023-04-11T01:46:36.123Z,100764.53
2023-04-11T01:49:03.432Z,100762.75
2023-04-11T01:51:30.763Z,100762.75
2023-04-11T01:53:57.860Z,100770.63
2023-04-11T01:56:25.107Z,100763.63
2023-04-11T01:58:52.244Z,100767.09
2023-04-11T02:01:21.715Z,100778.47
2023-04-11T02:03:49.010Z,100771.47
2023-04-11T02:06:17.095Z,100775.81
2023-04-11T02:08:44.784Z,100785.44
2023-04-11T02:11:11.938Z,100782.81
2023-04-11T02:13:39.141Z,100787.19
2023-04-11T02:16:15.330Z,100788.94
2023-04-11T02:18:45.043Z,100791.59
2023-04-11T02:21:12.683Z,100794.22
2023-04-11T02:23:39.899Z,100795.13
2023-04-11T02:26:07.110Z,100793.41
2023-04-11T02:28:34.556Z,100789.91
2023-04-11T02:31:02.926Z,100789.94
2023-04-11T02:33:30.251Z,100799.56
2023-04-11T02:35:57.278Z,100795.19
2023-04-11T02:38:24.316Z,100807.47
2023-04-11T02:40:51.564Z,100800.47
2023-04-11T02:43:18.550Z,100797.84
2023-04-11T02:45:45.677Z,100798.72
2023-04-11T02:48:13.079Z,100798.72
2023-04-11T02:50:41.189Z,100796.09
2023-04-11T02:53:08.544Z,100791.75
2023-04-11T02:55:36.004Z,100800.50
2023-04-11T02:58:03.228Z,100804.00
2023-04-11T03:00:30.300Z,100800.50
2023-04-11T03:02:57.670Z,100799.63
2023-04-11T03:05:24.802Z,100809.25
2023-04-11T03:07:52.024Z,100807.50
2023-04-11T03:10:19.774Z,100804.00
2023-04-11T03:12:46.751Z,100809.25
2023-04-11T03:15:15.652Z,100812.75
2023-04-11T03:17:43.086Z,100815.38
2023-04-11T03:20:14.192Z,100818.88
2023-04-11T03:22:41.221Z,100822.41
2023-04-11T03:25:09.254Z,100827.66
2023-04-11T03:27:36.276Z,100827.69
2023-04-11T03:30:03.878Z,100838.19
2023-04-11T03:32:31.022Z,100839.03
2023-04-11T03:35:01.043Z,100842.53
2023-04-11T03:37:28.231Z,100839.91
2023-04-11T03:39:55.584Z,100841.66
2023-04-11T03:42:23.125Z,100846.88
2023-04-11T03:44:50.148Z,100846.88
2023-04-11T03:47:17.295Z,100850.38
2023-04-11T03:49:44.695Z,100852.13
2023-04-11T03:52:12.778Z,100845.09
2023-04-11T03:54:39.851Z,100848.59
2023-04-11T03:57:06.975Z,100859.97
2023-04-11T03:59:34.180Z,100850.28
2023-04-11T04:02:01.302Z,100862.53
2023-04-11T04:04:28.771Z,100863.41
2023-04-11T04:06:57.105Z,100860.78
2023-04-11T04:09:24.879Z,100851.16
2023-04-11T04:11:51.975Z,100854.66
2023-04-11T04:14:19.451Z,100856.38
2023-04-11T04:16:46.414Z,100852.00
2023-04-11T04:19:13.496Z,100851.06
2023-04-11T04:21:41.969Z,100860.66
2023-04-11T04:24:09.004Z,100849.25
2023-04-11T04:26:38.178Z,100853.63
2023-04-11T04:29:06.036Z,100859.69
2023-04-11T04:31:33.938Z,100876.31
2023-04-11T04:34:11.005Z,100876.25
2023-04-11T04:36:49.295Z,100882.31
2023-04-11T04:39:17.648Z,100886.63
2023-04-11T04:41:49.114Z,100898.00
2023-04-11T04:44:16.624Z,100900.59
2023-04-11T04:46:44.323Z,100904.91
2023-04-11T04:49:11.354Z,100904.91
2023-04-11T04:51:40.438Z,100906.66
2023-04-11T04:54:07.537Z,100909.22
2023-04-11T04:56:34.804Z,100914.44
2023-04-11T04:59:02.006Z,100913.56
2023-04-11T05:01:29.180Z,100920.56
2023-04-11T05:04:00.905Z,100920.56
2023-04-11T05:06:31.994Z,100924.91
2023-04-11T05:09:01.407Z,100931.91
2023-04-11T05:11:29.181Z,100930.16
2023-04-11T05:13:56.363Z,100936.28
2023-04-11T05:16:23.624Z,100936.28
2023-04-11T05:18:50.841Z,100934.56
2023-04-11T05:21:17.944Z,100939.81
2023-04-11T05:23:45.227Z,100944.19
2023-04-11T05:26:12.420Z,100945.94
2023-04-11T05:28:39.715Z,100945.09
2023-04-11T05:31:08.506Z,100946.00
2023-04-11T05:33:38.209Z,100949.50
2023-04-11T05:36:06.910Z,100957.38
2023-04-11T05:38:34.283Z,100960.00
2023-04-11T05:41:01.491Z,100963.56
2023-04-11T05:43:28.549Z,100974.09
2023-04-11T05:45:55.580Z,100968.88
2023-04-11T05:48:23.944Z,100973.28
2023-04-11T05:50:51.568Z,100982.91
2023-04-11T05:53:18.694Z,100982.94
2023-04-11T05:55:46.069Z,100984.72
2023-04-11T05:58:13.121Z,100987.41
2023-04-11T06:00:40.407Z,100983.06
2023-04-11T06:03:11.163Z,100985.75
2023-04-11T06:05:39.171Z,100985.78
2023-04-11T06:08:08.462Z,100992.84
2023-04-11T06:10:36.062Z,100989.47
2023-04-11T06:13:03.100Z,100997.41
2023-04-11T06:15:30.413Z,101003.47
2023-04-11T06:17:57.857Z,101007.84
2023-04-11T06:20:25.409Z,101000.91
2023-04-11T06:22:52.479Z,101006.22
2023-04-11T06:25:21.222Z,101015.84
2023-04-11T06:27:48.440Z,101014.13
2023-04-11T06:30:16.007Z,101016.81
2023-04-11T06:32:43.284Z,101011.59
2023-04-11T06:35:11.126Z,101023.03
2023-04-11T06:37:38.164Z,101020.44
2023-04-11T06:40:06.069Z,101022.22
2023-04-11T06:42:33.420Z,101028.38
2023-04-11T06:45:01.660Z,101026.69
2023-04-11T06:47:28.822Z,101038.09
2023-04-11T06:49:56.089Z,101039.88
2023-04-11T06:52:23.146Z,101035.56
2023-04-11T06:54:50.360Z,101044.38
2023-04-11T06:57:18.038Z,101040.03
2023-04-11T06:59:45.387Z,101051.47
2023-04-11T07:02:12.683Z,101050.59
2023-04-11T07:04:39.933Z,101043.56
2023-04-11T07:07:07.407Z,101053.25
2023-04-11T07:09:34.594Z,101069.94
2023-04-11T07:12:01.807Z,101062.06
2023-04-11T07:14:28.846Z,101060.34
2023-04-11T07:16:55.853Z,101057.72
2023-04-11T07:19:22.979Z,101066.56
2023-04-11T07:21:50.203Z,101076.22
2023-04-11T07:24:18.772Z,101068.34
2023-04-11T07:26:46.534Z,101070.13
2023-04-11T07:29:14.881Z,101070.22
2023-04-11T07:31:42.316Z,101074.59
2023-04-11T07:34:09.388Z,101078.13
2023-04-11T07:36:36.625Z,101086.00
2023-04-11T07:39:04.546Z,101093.88
2023-04-11T07:41:31.522Z,101093.03
2023-04-11T07:43:58.720Z,101093.00
2023-04-11T07:46:26.055Z,101098.19
2023-04-11T07:48:53.074Z,101098.19
2023-04-11T07:51:20.084Z,101115.78
2023-04-11T07:53:47.193Z,101103.44
2023-04-11T07:56:15.801Z,101108.72
2023-04-11T07:58:43.205Z,101113.03
2023-04-11T08:01:25.198Z,101132.34
2023-04-11T08:03:54.983Z,101126.16
2023-04-11T08:06:22.867Z,101127.88
2023-04-11T08:08:50.836Z,101134.84
2023-04-11T08:11:17.897Z,101132.22
2023-04-11T08:13:45.390Z,101135.72
2023-04-11T08:16:15.248Z,101144.47
2023-04-11T08:18:42.888Z,101145.19
2023-04-11T08:21:11.593Z,101141.59
2023-04-11T08:23:42.702Z,101139.81
2023-04-11T08:26:12.165Z,101151.19
2023-04-11T08:28:41.846Z,101151.91
2023-04-11T08:31:10.760Z,101157.97
2023-04-11T08:33:39.262Z,101165.09
2023-04-11T08:36:10.372Z,101172.22
2023-04-11T08:38:38.721Z,101160.69
2023-04-11T08:41:06.786Z,101164.09
2023-04-11T08:43:40.577Z,101172.13
2023-04-11T08:46:08.422Z,101172.88
2023-04-11T08:48:35.941Z,101171.13
2023-04-11T08:51:03.193Z,101167.59
2023-04-11T08:53:31.278Z,101166.78
2023-04-11T08:56:00.028Z,101168.28
2023-04-11T08:58:27.109Z,101170.13
2023-04-11T09:00:54.453Z,101173.56
2023-04-11T09:03:21.536Z,101170.91
2023-04-11T09:05:48.678Z,101170.97
2023-04-11T09:08:17.256Z,101168.31
2023-04-11T09:10:45.764Z,101171.91
2023-04-11T09:13:27.555Z,101170.22
2023-04-11T09:16:03.992Z,101171.03
2023-04-11T09:18:43.436Z,101176.94
2023-04-11T09:21:14.426Z,101175.72
2023-04-11T09:23:41.933Z,101175.72
2023-04-11T09:26:11.834Z,101186.38
2023-04-11T09:28:53.588Z,101177.75
2023-04-11T09:31:22.214Z,101190.78
2023-04-11T09:33:58.594Z,101188.03
2023-04-11T09:36:27.438Z,101184.47
2023-04-11T09:38:54.587Z,101187.03
2023-04-11T09:41:36.410Z,101191.19
2023-04-11T09:44:03.736Z,101190.53
2023-04-11T09:46:31.470Z,101183.09
2023-04-11T09:49:01.792Z,101185.53
2023-04-11T09:51:36.393Z,101193.41
2023-04-11T09:54:05.457Z,101187.19
2023-04-11T09:56:34.898Z,101188.13
2023-04-11T09:59:04.370Z,101182.13
2023-04-11T10:01:31.861Z,101173.38
2023-04-11T10:04:01.009Z,101161.66
2023-04-11T10:06:52.277Z,101188.22
2023-04-11T10:09:19.705Z,101177.81
2023-04-11T10:11:47.148Z,101198.13
2023-04-11T10:14:39.526Z,101191.94
2023-04-11T10:17:24.130Z,101194.13
2023-04-11T10:19:57.655Z,101195.75
2023-04-11T10:22:46.802Z,101193.25
2023-04-11T10:25:24.962Z,101202.38
2023-04-11T10:28:01.678Z,101185.78
2023-04-11T10:30:41.243Z,101185.25
2023-04-11T10:33:21.728Z,101187.94
2023-04-11T10:36:03.606Z,101177.84
2023-04-11T10:38:49.070Z,101175.31
2023-04-11T10:41:31.806Z,101186.75
2023-04-11T10:44:15.971Z,101193.84
2023-04-11T10:46:52.156Z,101175.19
2023-04-11T10:49:39.380Z,101175.84
2023-04-11T10:52:24.100Z,101175.72
2023-04-11T10:54:53.816Z,101180.03
2023-04-11T10:57:22.999Z,101182.63
2023-04-11T10:59:50.509Z,101181.00
2023-04-11T11:02:19.717Z,101181.81
2023-04-11T11:04:47.590Z,101180.78
2023-04-11T11:07:18.818Z,101177.13
2023-04-11T11:09:51.285Z,101188.59
2023-04-11T11:12:18.674Z,101202.81
2023-04-11T11:14:47.377Z,101191.44
2023-04-11T11:17:16.992Z,101195.06
2023-04-11T11:19:45.423Z,101194.94
2023-04-11T11:22:30.472Z,101201.09
2023-04-11T11:25:10.783Z,101195.78
2023-04-11T11:27:37.862Z,101195.84
2023-04-11T11:30:12.258Z,101183.41
2023-04-11T11:32:39.275Z,101186.75
2023-04-11T11:35:15.661Z,101193.91
2023-04-11T11:37:42.786Z,101200.00
2023-04-11T11:40:14.823Z,101198.94
2023-04-11T11:42:42.217Z,101208.53
2023-04-11T11:45:21.911Z,101205.84
2023-04-11T11:47:50.728Z,101194.38
2023-04-11T11:50:32.452Z,101207.66
2023-04-11T11:53:16.063Z,101199.84
2023-04-11T11:55:44.073Z,101213.41
2023-04-11T11:58:11.159Z,101200.91
2023-04-11T12:00:40.621Z,101215.81
2023-04-11T12:03:12.198Z,101211.22
2023-04-11T12:05:41.543Z,101204.97
2023-04-11T12:08:09.161Z,101211.53
2023-04-11T12:10:45.910Z,101198.81
2023-04-11T12:13:19.141Z,101198.75
2023-04-11T12:15:57.542Z,101197.72
2023-04-11T12:18:27.525Z,101197.34
2023-04-11T12:20:55.585Z,101190.63
2023-04-11T12:23:23.806Z,101199.31
2023-04-11T12:25:51.054Z,101198.47
2023-04-11T12:28:18.385Z,101206.94
2023-04-11T12:30:46.723Z,101191.84
2023-04-11T12:33:13.881Z,101183.91
2023-04-11T12:35:40.846Z,101200.16
2023-04-11T12:38:08.097Z,101193.03
2023-04-11T12:40:35.178Z,101185.69
2023-04-11T12:43:02.214Z,101197.63
2023-04-11T12:45:29.174Z,101200.38
2023-04-11T12:47:56.210Z,101202.94
2023-04-11T12:50:23.908Z,101208.22
2023-04-11T12:52:51.729Z,101181.50
2023-04-11T12:55:19.371Z,101180.38
2023-04-11T12:57:46.451Z,101178.38
2023-04-11T13:00:14.768Z,101190.28
2023-04-11T13:02:44.675Z,101194.09
2023-04-11T13:05:16.509Z,101202.31
2023-04-11T13:07:45.664Z,101190.69
2023-04-11T13:10:14.543Z,101196.25
2023-04-11T13:12:44.841Z,101200.84
2023-04-11T13:15:17.077Z,101197.41
2023-04-11T13:17:44.425Z,101200.81
2023-04-11T13:20:13.070Z,101198.06
2023-04-11T13:22:41.798Z,101195.34
2023-04-11T13:25:10.659Z,101201.16
2023-04-11T13:27:39.795Z,101198.75
2023-04-11T13:30:09.550Z,101190.34
2023-04-11T13:32:37.197Z,101187.13
2023-04-11T13:35:05.853Z,101176.72
2023-04-11T13:37:34.043Z,101188.84
2023-04-11T13:40:01.156Z,101182.31
2023-04-11T13:42:28.118Z,101175.06
2023-04-11T13:44:57.460Z,101176.03
2023-04-11T13:47:24.572Z,101178.78
2023-04-11T13:49:51.596Z,101182.50
2023-04-11T13:52:18.578Z,101173.59
2023-04-11T13:54:45.644Z,101188.47
2023-04-11T13:57:12.670Z,101167.97
2023-04-11T13:59:39.927Z,101160.75
2023-04-11T14:02:07.288Z,101159.28
2023-04-11T14:04:34.581Z,101160.38
2023-04-11T14:07:01.624Z,101167.56
2023-04-11T14:09:28.831Z,101158.84
2023-04-11T14:11:57.292Z,101159.94
2023-04-11T14:14:24.368Z,101146.53
2023-04-11T14:16:51.360Z,101159.72
2023-04-11T14:19:18.502Z,101147.19
2023-04-11T14:21:45.771Z,101136.59
2023-04-11T14:24:12.803Z,101143.19
2023-04-11T14:26:39.878Z,101143.75
2023-04-11T14:29:06.935Z,101135.69
2023-04-11T14:31:34.160Z,101126.03
2023-04-11T14:34:01.230Z,101127.78
2023-04-11T14:36:28.466Z,101134.03
2023-04-11T14:38:55.682Z,101128.47
2023-04-11T14:41:23.448Z,101120.25
2023-04-11T14:43:50.816Z,101122.06
2023-04-11T14:46:18.110Z,101114.88
2023-04-11T14:48:45.418Z,101110.63
2023-04-11T14:51:12.430Z,101115.81
2023-04-11T14:53:39.451Z,101105.00
2023-04-11T14:56:07.439Z,101104.84
2023-04-11T14:58:34.802Z,101105.31
2023-04-11T15:01:02.483Z,101102.97
2023-04-11T15:03:29.802Z,101109.25
2023-04-11T15:05:57.040Z,101098.53
2023-04-11T15:08:24.066Z,101092.38
2023-04-11T15:10:54.764Z,101100.22
2023-04-11T15:13:22.918Z,101091.00
2023-04-11T15:15:50.177Z,101082.88
2023-04-11T15:18:28.019Z,101086.59
2023-04-11T15:21:04.556Z,101083.22
2023-04-11T15:23:31.736Z,101080.50
2023-04-11T15:26:03.426Z,101082.94
2023-04-11T15:28:36.620Z,101085.06
2023-04-11T15:31:08.189Z,101086.66
2023-04-11T15:33:35.874Z,101083.28
2023-04-11T15:36:03.156Z,101089.84
2023-04-11T15:38:30.210Z,101076.91
2023-04-11T15:41:00.084Z,101075.00
2023-04-11T15:43:27.916Z,101070.47
2023-04-11T15:45:55.254Z,101061.94
2023-04-11T15:48:22.642Z,101061.06
2023-04-11T15:50:50.995Z,101054.69
2023-04-11T15:53:18.345Z,101058.31
2023-04-11T15:55:47.079Z,101060.44
2023-04-11T15:58:14.091Z,101052.50
2023-04-11T16:00:47.063Z,101045.31
2023-04-11T16:03:14.377Z,101050.41
2023-04-11T16:05:43.243Z,101051.91
2023-04-11T16:08:10.511Z,101045.88
2023-04-11T16:10:37.711Z,101042.13
2023-04-11T16:13:04.846Z,101040.97
2023-04-11T16:15:32.438Z,101036.47
2023-04-11T16:17:59.947Z,101036.75
2023-04-11T16:20:27.200Z,101030.22
2023-04-11T16:22:54.226Z,101027.00
2023-04-11T16:25:21.850Z,101028.34
2023-04-11T16:27:50.892Z,101024.00
2023-04-11T16:30:17.931Z,101016.34
2023-04-11T16:32:45.276Z,101024.78
2023-04-11T16:35:12.605Z,101020.03
2023-04-11T16:37:39.609Z,101020.47
2023-04-11T16:40:11.765Z,101014.78
2023-04-11T16:42:39.829Z,101006.44
2023-04-11T16:45:08.774Z,101008.56
2023-04-11T16:47:36.310Z,101004.47
2023-04-11T16:50:05.373Z,101004.66
2023-04-11T16:52:32.961Z,100996.00
2023-04-11T16:55:00.207Z,101002.28
2023-04-11T16:57:27.644Z,100999.94
2023-04-11T16:59:54.765Z,101001.94
2023-04-11T17:02:21.968Z,100997.66
2023-04-11T17:04:49.365Z,100995.94
2023-04-11T17:07:16.705Z,100992.53
2023-04-11T17:09:47.039Z,100988.16
2023-04-11T17:12:14.023Z,100977.66
2023-04-11T17:14:41.309Z,100982.13
2023-04-11T17:17:08.566Z,100977.81
2023-04-11T17:19:35.802Z,100962.03
2023-04-11T17:22:02.980Z,100962.19
2023-04-11T17:24:30.118Z,100953.44
2023-04-11T17:26:57.194Z,100957.03
2023-04-11T17:29:24.284Z,100954.53
2023-04-11T17:31:55.129Z,100953.78
2023-04-11T17:34:22.334Z,100946.81
2023-04-11T17:36:49.636Z,100941.69
2023-04-11T17:39:18.057Z,100939.22
2023-04-11T17:41:46.076Z,100936.69
2023-04-11T17:44:13.729Z,100933.28
2023-04-11T17:46:41.269Z,100932.56
2023-04-11T17:49:08.895Z,100929.13
2023-04-11T17:51:38.816Z,100924.88
2023-04-11T17:54:08.661Z,100924.97
2023-04-11T17:56:35.668Z,100925.97
2023-04-11T17:59:02.733Z,100919.91
2023-04-11T18:01:32.649Z,100913.84
2023-04-11T18:04:01.867Z,100923.56
2023-04-11T18:06:29.862Z,100906.91
2023-04-11T18:08:57.346Z,100903.47
2023-04-11T18:11:24.587Z,100907.06
2023-04-11T18:13:52.475Z,100909.78
2023-04-11T18:16:19.725Z,100913.44
2023-04-11T18:18:48.846Z,100906.47
2023-04-11T18:21:17.024Z,100906.56
2023-04-11T18:23:44.205Z,100909.28
2023-04-11T18:26:12.510Z,100900.53
2023-04-11T18:28:39.513Z,100903.19
2023-04-11T18:31:06.888Z,100894.44
2023-04-11T18:33:35.478Z,100886.53
2023-04-11T18:36:07.488Z,100880.44
2023-04-11T18:38:34.482Z,100876.09
2023-04-11T18:41:06.312Z,100884.06
2023-04-11T18:43:34.508Z,100884.91
2023-04-11T18:46:02.522Z,100889.34
2023-04-11T18:48:30.799Z,100888.53
2023-04-11T18:51:01.654Z,100889.47
2023-04-11T18:53:30.068Z,100886.00
2023-04-11T18:55:57.973Z,100881.63
2023-04-11T18:58:26.392Z,100886.00
2023-04-11T19:00:54.426Z,100884.28
2023-04-11T19:03:23.918Z,100881.66
2023-04-11T19:05:51.860Z,100883.41
2023-04-11T19:08:18.965Z,100888.72
2023-04-11T19:10:46.174Z,100890.47
2023-04-11T19:13:14.376Z,100889.63
2023-04-11T19:15:42.190Z,100887.84
2023-04-11T19:18:10.469Z,100880.84
2023-04-11T19:20:39.031Z,100880.00
2023-04-11T19:23:06.297Z,100887.06
2023-04-11T19:25:33.468Z,100869.47
2023-04-11T19:28:00.774Z,100867.69
2023-04-11T19:30:28.655Z,100867.72
2023-04-11T19:32:56.287Z,100867.72
2023-04-11T19:35:24.370Z,100864.22
2023-04-11T19:37:51.566Z,100852.78
2023-04-11T19:40:18.876Z,100852.78
2023-04-11T19:42:46.188Z,100849.25
2023-04-11T19:45:13.245Z,100844.91
2023-04-11T19:47:41.695Z,100834.38
2023-04-11T19:50:13.315Z,100829.97
2023-04-11T19:52:42.091Z,100820.31
2023-04-11T19:55:10.920Z,100824.75
2023-04-11T19:57:39.135Z,100820.34
2023-04-11T20:00:12.375Z,100809.84
2023-04-11T20:02:44.655Z,100794.03
2023-04-11T20:05:14.514Z,100787.91
2023-04-11T20:07:42.561Z,100788.81
2023-04-11T20:10:13.427Z,100789.69
2023-04-11T20:12:40.997Z,100783.56
2023-04-11T20:15:09.336Z,100774.81
2023-04-11T20:17:36.606Z,100770.41
2023-04-11T20:20:08.731Z,100758.09
2023-04-11T20:22:38.313Z,100758.09
2023-04-11T20:25:08.077Z,100745.78
2023-04-11T20:27:35.325Z,100746.69
2023-04-11T20:30:08.891Z,100738.78
2023-04-11T20:32:36.978Z,100734.41
2023-04-11T20:35:05.128Z,100730.94
2023-04-11T20:37:34.505Z,100723.03
2023-04-11T20:40:03.053Z,100718.66
2023-04-11T20:42:32.069Z,100709.00
2023-04-11T20:45:09.198Z,100696.72
2023-04-11T20:47:37.788Z,100701.13
2023-04-11T20:50:10.381Z,100691.47
2023-04-11T20:52:38.201Z,100684.44
2023-04-11T20:55:06.126Z,100677.44
2023-04-11T20:57:33.763Z,100668.66
2023-04-11T21:00:07.051Z,100666.91
2023-04-11T21:02:34.409Z,100666.00
2023-04-11T21:05:01.535Z,100658.97
2023-04-11T21:07:28.590Z,100647.59
2023-04-11T21:09:56.392Z,100656.41
2023-04-11T21:12:23.425Z,100647.63
2023-04-11T21:14:50.597Z,100634.44
2023-04-11T21:17:17.739Z,100647.63
2023-04-11T21:19:44.715Z,100637.97
2023-04-11T21:22:12.929Z,100640.59
2023-04-11T21:24:40.190Z,100637.97
2023-04-11T21:27:07.285Z,100623.91
2023-04-11T21:29:34.318Z,100624.81
2023-04-11T21:32:01.495Z,100616.03
2023-04-11T21:34:28.543Z,100613.41
2023-04-11T21:36:57.149Z,100614.31
2023-04-11T21:39:24.475Z,100608.16
2023-04-11T21:41:51.513Z,100605.53
2023-04-11T21:44:18.593Z,100617.81
2023-04-11T21:46:45.623Z,100622.22
2023-04-11T21:49:12.720Z,100625.75
2023-04-11T21:51:39.735Z,100616.97
2023-04-11T21:54:07.065Z,100618.75
2023-04-11T21:56:34.146Z,100614.44
2023-04-11T21:59:01.369Z,100610.94
2023-04-11T22:01:29.233Z,100612.72
2023-04-11T22:03:58.936Z,100607.44
2023-04-11T22:06:27.901Z,100610.13
2023-04-11T22:08:54.872Z,100599.56
2023-04-11T22:11:21.885Z,100598.72
2023-04-11T22:13:49.075Z,100591.69
2023-04-11T22:16:16.128Z,100587.34
2023-04-11T22:18:49.798Z,100581.22
2023-04-11T22:21:21.236Z,100575.94
2023-04-11T22:23:54.459Z,100574.22
2023-04-11T22:26:29.516Z,100569.88
2023-04-11T22:29:02.776Z,100557.59
2023-04-11T22:31:30.810Z,100556.75
2023-04-11T22:33:58.218Z,100555.00
2023-04-11T22:36:25.410Z,100559.44
2023-04-11T22:38:52.985Z,100547.16
2023-04-11T22:41:20.424Z,100539.28
2023-04-11T22:43:47.476Z,100528.75
2023-04-11T22:46:14.584Z,100534.91
2023-04-11T22:48:42.364Z,100531.44
2023-04-11T22:51:09.374Z,100526.19
2023-04-11T22:53:42.104Z,100525.31
2023-04-11T22:56:11.131Z,100516.56
2023-04-11T22:58:38.121Z,100513.06
2023-04-11T23:01:06.390Z,100498.16
2023-04-11T23:03:33.493Z,100492.03
2023-04-11T23:06:00.761Z,100474.53
2023-04-11T23:08:28.468Z,100480.69
2023-04-11T23:10:55.452Z,100464.94
2023-04-11T23:13:22.728Z,100467.59
2023-04-11T23:15:49.791Z,100456.22
2023-04-11T23:18:17.509Z,100456.22
2023-04-11T23:20:47.605Z,100463.22
2023-04-11T23:23:17.759Z,100462.38
2023-04-11T23:25:45.527Z,100465.91
2023-04-11T23:28:12.719Z,100449.25
2023-04-11T23:30:40.376Z,100445.75
2023-04-11T23:33:08.968Z,100439.63
2023-04-11T23:35:37.494Z,100429.13
2023-04-11T23:38:06.096Z,100430.03
2023-04-11T23:40:33.582Z,100433.53
2023-04-11T23:43:00.646Z,100419.56
2023-04-11T23:45:27.815Z,100419.56
2023-04-11T23:47:55.228Z,100416.06
2023-04-11T23:50:22.429Z,100413.44
2023-04-11T23:52:49.475Z,100395.94
2023-04-11T23:55:16.620Z,100386.31
2023-04-11T23:57:43.619Z,100381.94
